createdAt,value
2019-01-25T00:00:28.714Z,117.97
2019-01-25T00:02:55.019Z,117.50
2019-01-25T00:05:21.467Z,118.23
2019-01-25T00:07:47.783Z,121.80
2019-01-25T00:10:14.087Z,130.60
2019-01-25T00:12:40.635Z,125.43
2019-01-25T00:15:09.342Z,121.10
2019-01-25T00:17:35.657Z,127.30
2019-01-25T00:20:04.421Z,132.33
2019-01-25T00:22:30.686Z,117.60
2019-01-25T00:24:56.982Z,128.40
2019-01-25T00:27:23.315Z,131.97
2019-01-25T00:29:49.519Z,132.50
2019-01-25T00:32:15.722Z,121.20
2019-01-25T00:34:50.583Z,118.77
2019-01-25T00:37:16.782Z,127.10
2019-01-25T00:39:43.011Z,118.13
2019-01-25T00:42:09.206Z,124.03
2019-01-25T00:44:35.427Z,126.17
2019-01-25T00:47:01.631Z,121.93
2019-01-25T00:49:28.750Z,122.00
2019-01-25T00:51:54.947Z,120.67
2019-01-25T00:54:21.222Z,137.47
2019-01-25T00:56:47.442Z,120.40
2019-01-25T00:59:13.638Z,123.47
2019-01-25T01:01:40.061Z,124.27
2019-01-25T01:04:06.267Z,123.03
2019-01-25T01:06:32.702Z,126.03
2019-01-25T01:08:58.914Z,134.87
2019-01-25T01:11:25.239Z,127.97
2019-01-25T01:13:51.553Z,124.77
2019-01-25T01:16:17.785Z,123.70
2019-01-25T01:18:44.091Z,125.23
2019-01-25T01:21:10.295Z,115.80
2019-01-25T01:23:36.610Z,120.73
2019-01-25T01:26:03.515Z,118.00
2019-01-25T01:28:29.753Z,122.70
2019-01-25T01:30:55.959Z,127.37
2019-01-25T01:33:22.155Z,127.80
2019-01-25T01:35:48.374Z,126.77
2019-01-25T01:38:14.582Z,120.60
2019-01-25T01:40:40.893Z,125.37
2019-01-25T01:43:07.091Z,125.03
2019-01-25T01:45:33.305Z,134.23
2019-01-25T01:47:59.530Z,121.10
2019-01-25T01:50:25.742Z,126.43
2019-01-25T01:52:51.954Z,121.20
2019-01-25T01:55:18.386Z,118.03
2019-01-25T01:57:44.943Z,118.67
2019-01-25T02:00:20.126Z,124.37
2019-01-25T02:02:46.350Z,119.07
2019-01-25T02:05:13.015Z,129.03
2019-01-25T02:07:39.248Z,126.53
2019-01-25T02:10:15.173Z,120.93
2019-01-25T02:12:41.398Z,123.43
2019-01-25T02:15:10.203Z,123.67
2019-01-25T02:17:36.422Z,129.07
2019-01-25T02:20:06.230Z,118.83
2019-01-25T02:22:32.449Z,120.87
2019-01-25T02:24:58.650Z,123.00
2019-01-25T02:27:25.084Z,118.17
2019-01-25T02:29:51.283Z,120.93
2019-01-25T02:32:17.498Z,118.47
2019-01-25T02:34:43.697Z,125.47
2019-01-25T02:37:09.906Z,130.53
2019-01-25T02:39:36.118Z,119.30
2019-01-25T02:42:02.322Z,120.43
2019-01-25T02:44:28.534Z,111.73
2019-01-25T02:46:54.739Z,117.97
2019-01-25T02:49:20.964Z,123.00
2019-01-25T02:51:47.410Z,120.53
2019-01-25T02:54:13.627Z,128.23
2019-01-25T02:56:39.828Z,118.53
2019-01-25T02:59:06.151Z,127.80
2019-01-25T03:01:32.453Z,127.50
2019-01-25T03:03:58.807Z,120.00
2019-01-25T03:06:25.351Z,122.70
2019-01-25T03:08:51.755Z,115.50
2019-01-25T03:11:17.958Z,117.77
2019-01-25T03:13:44.186Z,120.30
2019-01-25T03:16:13.513Z,118.23
2019-01-25T03:18:39.779Z,115.90
2019-01-25T03:21:05.978Z,120.73
2019-01-25T03:23:32.195Z,113.43
2019-01-25T03:25:58.502Z,120.73
2019-01-25T03:28:24.729Z,121.73
2019-01-25T03:30:50.940Z,132.07
2019-01-25T03:33:17.155Z,122.60
2019-01-25T03:35:43.359Z,118.07
2019-01-25T03:38:09.576Z,118.80
2019-01-25T03:40:35.978Z,122.07
2019-01-25T03:43:02.187Z,130.13
2019-01-25T03:45:28.620Z,118.27
2019-01-25T03:47:55.240Z,125.03
2019-01-25T03:50:27.134Z,118.43
2019-01-25T03:52:53.810Z,118.80
2019-01-25T03:55:20.233Z,120.63
2019-01-25T03:57:46.730Z,113.73
2019-01-25T04:00:15.363Z,117.33
2019-01-25T04:02:41.582Z,117.53
2019-01-25T04:05:10.264Z,122.20
2019-01-25T04:07:36.478Z,125.17
2019-01-25T04:10:06.197Z,125.80
2019-01-25T04:12:32.401Z,127.90
2019-01-25T04:14:58.614Z,125.13
2019-01-25T04:17:24.823Z,116.90
2019-01-25T04:19:51.312Z,122.03
2019-01-25T04:22:17.526Z,130.73
2019-01-25T04:24:43.722Z,121.53
2019-01-25T04:27:09.946Z,124.20
2019-01-25T04:29:36.148Z,122.23
2019-01-25T04:32:02.761Z,125.00
2019-01-25T04:34:28.978Z,120.63
2019-01-25T04:36:55.204Z,122.23
2019-01-25T04:39:22.399Z,126.07
2019-01-25T04:41:48.610Z,117.90
2019-01-25T04:44:14.815Z,122.77
2019-01-25T04:46:41.135Z,122.13
2019-01-25T04:49:07.339Z,117.90
2019-01-25T04:51:33.554Z,115.27
2019-01-25T04:53:59.747Z,133.57
2019-01-25T04:56:26.258Z,126.13
2019-01-25T04:58:52.681Z,127.00
2019-01-25T05:01:19.012Z,122.20
2019-01-25T05:03:45.216Z,117.60
2019-01-25T05:06:13.982Z,120.43
2019-01-25T05:08:40.183Z,120.30
2019-01-25T05:11:19.410Z,112.53
2019-01-25T05:13:39.519Z,115.90
2019-01-25T05:16:09.544Z,117.70
2019-01-25T05:18:35.755Z,120.77
2019-01-25T05:21:01.979Z,119.53
2019-01-25T05:23:28.173Z,112.53
2019-01-25T05:25:54.383Z,125.80
2019-01-25T05:28:20.625Z,121.93
2019-01-25T05:30:55.450Z,117.47
2019-01-25T05:33:21.671Z,114.17
2019-01-25T05:35:47.981Z,120.37
2019-01-25T05:38:14.215Z,209.33
2019-01-25T05:40:40.423Z,204.40
2019-01-25T05:43:06.639Z,120.00
2019-01-25T05:45:32.858Z,117.27
2019-01-25T05:47:59.204Z,116.10
2019-01-25T05:50:25.452Z,106.37
2019-01-25T05:52:51.879Z,115.83
2019-01-25T05:55:21.735Z,110.70
2019-01-25T05:57:48.287Z,112.50
2019-01-25T06:00:16.808Z,114.40
2019-01-25T06:02:43.143Z,116.47
2019-01-25T06:05:10.250Z,109.97
2019-01-25T06:07:36.483Z,110.10
2019-01-25T06:10:05.496Z,113.73
2019-01-25T06:12:31.885Z,113.77
2019-01-25T06:14:58.082Z,113.83
2019-01-25T06:17:24.294Z,131.63
2019-01-25T06:19:50.763Z,124.33
2019-01-25T06:22:16.974Z,110.17
2019-01-25T06:24:46.741Z,111.40
2019-01-25T06:27:13.255Z,123.60
2019-01-25T06:29:39.462Z,107.13
2019-01-25T06:32:05.791Z,118.93
2019-01-25T06:34:31.985Z,124.90
2019-01-25T06:36:58.207Z,116.67
2019-01-25T06:39:24.416Z,112.23
2019-01-25T06:41:50.791Z,105.30
2019-01-25T06:44:16.990Z,106.87
2019-01-25T06:46:43.215Z,103.77
2019-01-25T06:49:09.418Z,113.23
2019-01-25T06:51:35.798Z,109.77
2019-01-25T06:54:02.136Z,103.77
2019-01-25T06:56:28.350Z,409.60
2019-01-25T06:58:56.457Z,188.33
2019-01-25T07:01:24.628Z,107.67
2019-01-25T07:03:50.923Z,114.47
2019-01-25T07:06:17.130Z,112.57
2019-01-25T07:08:43.490Z,101.77
2019-01-25T07:11:09.979Z,100.83
2019-01-25T07:13:36.250Z,98.93
2019-01-25T07:16:02.806Z,102.90
2019-01-25T07:18:29.024Z,105.30
2019-01-25T07:20:55.227Z,109.53
2019-01-25T07:23:21.447Z,114.13
2019-01-25T07:25:47.651Z,243.30
2019-01-25T07:28:13.870Z,180.90
2019-01-25T07:30:40.138Z,109.80
2019-01-25T07:33:06.367Z,109.63
2019-01-25T07:35:32.558Z,102.80
2019-01-25T07:37:58.882Z,114.67
2019-01-25T07:40:25.181Z,103.13
2019-01-25T07:42:51.543Z,108.53
2019-01-25T07:45:18.042Z,102.17
2019-01-25T07:47:44.321Z,103.83
2019-01-25T07:50:11.388Z,101.53
2019-01-25T07:52:38.151Z,102.00
2019-01-25T07:55:07.062Z,96.83
2019-01-25T07:57:33.478Z,99.27
2019-01-25T07:59:59.842Z,100.50
2019-01-25T08:02:26.323Z,147.37
2019-01-25T08:04:52.603Z,289.37
2019-01-25T08:07:19.032Z,117.87
2019-01-25T08:09:45.307Z,101.93
2019-01-25T08:12:11.517Z,109.83
2019-01-25T08:14:37.937Z,107.80
2019-01-25T08:17:04.342Z,99.93
2019-01-25T08:19:30.630Z,105.67
2019-01-25T08:21:57.000Z,102.23
2019-01-25T08:24:23.314Z,106.97
2019-01-25T08:26:49.530Z,95.27
2019-01-25T08:29:15.982Z,103.70
2019-01-25T08:31:42.400Z,97.47
2019-01-25T08:34:08.688Z,97.23
2019-01-25T08:36:34.993Z,108.20
2019-01-25T08:39:01.377Z,90.07
2019-01-25T08:41:27.725Z,190.53
2019-01-25T08:43:54.041Z,107.43
2019-01-25T08:46:20.330Z,94.97
2019-01-25T08:48:46.540Z,422.23
2019-01-25T08:51:12.751Z,94.60
2019-01-25T08:53:38.952Z,89.37
2019-01-25T08:56:08.199Z,85.07
2019-01-25T08:58:35.879Z,88.67
2019-01-25T09:01:03.819Z,85.70
2019-01-25T09:03:30.047Z,87.23
2019-01-25T09:05:56.266Z,87.13
2019-01-25T09:08:22.458Z,87.97
2019-01-25T09:10:48.675Z,90.43
2019-01-25T09:13:14.887Z,90.10
2019-01-25T09:15:41.171Z,94.43
2019-01-25T09:18:07.684Z,93.37
2019-01-25T09:20:33.897Z,89.07
2019-01-25T09:23:00.111Z,99.67
2019-01-25T09:25:26.425Z,96.20
2019-01-25T09:27:52.639Z,299.63
2019-01-25T09:30:21.464Z,114.20
2019-01-25T09:32:47.783Z,91.67
2019-01-25T09:35:15.246Z,90.67
2019-01-25T09:37:41.462Z,90.20
2019-01-25T09:40:11.370Z,91.10
2019-01-25T09:42:37.595Z,92.07
2019-01-25T09:45:07.511Z,71.73
2019-01-25T09:47:33.741Z,62.80
2019-01-25T09:49:59.951Z,63.17
2019-01-25T09:52:26.171Z,51.83
2019-01-25T09:54:52.375Z,57.50
2019-01-25T09:57:18.895Z,52.70
2019-01-25T09:59:45.102Z,57.90
2019-01-25T10:02:11.406Z,50.20
2019-01-25T10:04:37.606Z,41.67
2019-01-25T10:07:04.137Z,39.20
2019-01-25T10:09:30.340Z,41.20
2019-01-25T10:11:56.596Z,41.23
2019-01-25T10:14:22.799Z,37.23
2019-01-25T10:16:49.098Z,35.43
2019-01-25T10:19:15.325Z,36.77
2019-01-25T10:21:41.542Z,37.07
2019-01-25T10:24:07.765Z,118.07
2019-01-25T10:26:34.144Z,84.37
2019-01-25T10:29:00.362Z,30.73
2019-01-25T10:31:26.570Z,27.00
2019-01-25T10:33:52.989Z,28.17
2019-01-25T10:36:19.389Z,30.93
2019-01-25T10:38:45.603Z,29.73
2019-01-25T10:41:11.902Z,31.03
2019-01-25T10:43:38.131Z,27.53
2019-01-25T10:46:04.538Z,25.93
2019-01-25T10:48:30.764Z,26.27
2019-01-25T10:50:56.982Z,24.87
2019-01-25T10:53:23.210Z,26.70
2019-01-25T10:55:49.406Z,26.47
2019-01-25T10:58:15.736Z,25.97
2019-01-25T11:00:42.022Z,26.97
2019-01-25T11:03:08.263Z,25.07
2019-01-25T11:05:34.867Z,30.33
2019-01-25T11:08:01.186Z,22.70
2019-01-25T11:10:27.387Z,31.53
2019-01-25T11:13:00.478Z,23.80
2019-01-25T11:15:23.110Z,22.57
2019-01-25T11:17:49.542Z,20.93
2019-01-25T11:20:19.488Z,18.77
2019-01-25T11:22:45.786Z,20.60
2019-01-25T11:25:27.606Z,18.47
2019-01-25T11:27:53.947Z,18.00
2019-01-25T11:30:20.462Z,16.20
2019-01-25T11:32:46.662Z,19.37
2019-01-25T11:35:12.991Z,16.97
2019-01-25T11:37:39.194Z,18.70
2019-01-25T11:40:21.322Z,13.47
2019-01-25T11:42:47.694Z,13.33
2019-01-25T11:45:14.123Z,12.20
2019-01-25T11:47:40.835Z,12.57
2019-01-25T11:50:15.842Z,12.33
2019-01-25T11:52:42.038Z,30.07
2019-01-25T11:55:09.733Z,33.97
2019-01-25T11:57:36.025Z,15.53
2019-01-25T12:00:11.843Z,16.07
2019-01-25T12:02:38.050Z,16.73
2019-01-25T12:05:06.671Z,15.57
2019-01-25T12:07:32.874Z,17.33
2019-01-25T12:09:59.109Z,17.20
2019-01-25T12:12:25.310Z,19.70
2019-01-25T12:14:51.530Z,20.47
2019-01-25T12:17:17.761Z,27.17
2019-01-25T12:19:43.987Z,18.73
2019-01-25T12:22:10.203Z,18.33
2019-01-25T12:24:37.409Z,17.90
2019-01-25T12:27:03.613Z,17.60
2019-01-25T12:29:29.857Z,17.80
2019-01-25T12:31:56.334Z,18.30
2019-01-25T12:34:22.538Z,15.00
2019-01-25T12:36:48.755Z,18.87
2019-01-25T12:39:14.980Z,21.37
2019-01-25T12:41:41.251Z,16.90
2019-01-25T12:44:07.445Z,19.07
2019-01-25T12:46:33.663Z,17.67
2019-01-25T12:48:59.871Z,15.47
2019-01-25T12:51:26.186Z,15.23
2019-01-25T12:53:52.411Z,15.50
2019-01-25T12:56:18.631Z,16.63
2019-01-25T12:58:44.938Z,15.97
2019-01-25T13:01:11.363Z,15.00
2019-01-25T13:03:37.674Z,17.17
2019-01-25T13:06:04.703Z,64.67
2019-01-25T13:08:31.010Z,70.10
2019-01-25T13:10:57.302Z,19.73
2019-01-25T13:13:23.515Z,9.60
2019-01-25T13:15:50.266Z,9.20
2019-01-25T13:18:16.582Z,7.90
2019-01-25T13:20:42.790Z,7.07
2019-01-25T13:23:09.019Z,6.73
2019-01-25T13:25:35.218Z,9.87
2019-01-25T13:28:02.325Z,6.87
2019-01-25T13:30:31.371Z,6.37
2019-01-25T13:32:58.385Z,8.47
2019-01-25T13:35:24.901Z,8.80
2019-01-25T13:37:51.218Z,8.17
2019-01-25T13:40:19.633Z,10.93
2019-01-25T13:42:45.951Z,8.03
2019-01-25T13:45:16.820Z,7.93
2019-01-25T13:47:43.742Z,7.27
2019-01-25T13:50:12.750Z,16.77
2019-01-25T13:52:39.074Z,7.00
2019-01-25T13:55:08.803Z,8.97
2019-01-25T13:57:35.039Z,8.50
2019-01-25T14:00:03.234Z,8.77
2019-01-25T14:02:29.458Z,8.83
2019-01-25T14:04:55.677Z,7.53
2019-01-25T14:07:21.883Z,8.47
2019-01-25T14:09:48.146Z,7.10
2019-01-25T14:12:17.038Z,8.87
2019-01-25T14:14:43.250Z,6.93
2019-01-25T14:17:09.654Z,7.63
2019-01-25T14:19:35.879Z,16.63
2019-01-25T14:22:02.146Z,9.47
2019-01-25T14:24:28.391Z,10.10
2019-01-25T14:26:54.714Z,8.60
2019-01-25T14:29:20.958Z,7.87
2019-01-25T14:31:47.199Z,7.63
2019-01-25T14:34:13.524Z,10.50
2019-01-25T14:36:39.950Z,8.97
2019-01-25T14:39:06.386Z,8.57
2019-01-25T14:41:32.616Z,8.17
2019-01-25T14:43:59.016Z,9.57
2019-01-25T14:46:25.257Z,8.97
2019-01-25T14:48:51.454Z,10.33
2019-01-25T14:51:17.798Z,9.90
2019-01-25T14:53:44.010Z,9.27
2019-01-25T14:56:10.430Z,9.50
2019-01-25T14:58:39.379Z,9.30
2019-01-25T15:01:05.599Z,9.10
2019-01-25T15:03:31.807Z,9.07
2019-01-25T15:05:58.122Z,12.00
2019-01-25T15:08:24.322Z,10.30
2019-01-25T15:10:50.542Z,10.77
2019-01-25T15:13:16.755Z,11.13
2019-01-25T15:15:42.967Z,11.00
2019-01-25T15:18:09.398Z,12.23
2019-01-25T15:20:35.694Z,12.37
2019-01-25T15:23:02.019Z,11.03
2019-01-25T15:25:28.351Z,11.50
2019-01-25T15:27:54.546Z,12.60
2019-01-25T15:30:25.864Z,11.60
2019-01-25T15:32:52.286Z,10.20
2019-01-25T15:35:19.520Z,13.27
2019-01-25T15:37:45.760Z,14.33
2019-01-25T15:40:14.757Z,11.80
2019-01-25T15:42:41.316Z,11.87
2019-01-25T15:45:10.218Z,11.57
2019-01-25T15:47:36.479Z,26.40
2019-01-25T15:50:06.498Z,14.63
2019-01-25T15:52:32.706Z,15.27
2019-01-25T15:54:58.910Z,13.10
2019-01-25T15:57:25.135Z,11.90
2019-01-25T15:59:51.347Z,14.07
2019-01-25T16:02:17.575Z,12.37
2019-01-25T16:04:43.783Z,12.80
2019-01-25T16:07:10.003Z,11.27
2019-01-25T16:09:36.531Z,11.90
2019-01-25T16:12:03.230Z,17.77
2019-01-25T16:14:29.442Z,16.90
2019-01-25T16:16:55.754Z,13.77
2019-01-25T16:19:21.980Z,14.27
2019-01-25T16:21:48.187Z,19.23
2019-01-25T16:24:14.415Z,18.73
2019-01-25T16:26:47.090Z,20.00
2019-01-25T16:29:13.318Z,19.50
2019-01-25T16:31:39.525Z,19.10
2019-01-25T16:34:05.751Z,18.27
2019-01-25T16:36:31.958Z,18.07
2019-01-25T16:38:58.191Z,19.20
2019-01-25T16:41:24.395Z,21.10
2019-01-25T16:43:50.713Z,21.23
2019-01-25T16:46:17.049Z,22.97
2019-01-25T16:48:45.986Z,21.17
2019-01-25T16:51:12.191Z,22.90
2019-01-25T16:53:38.406Z,21.63
2019-01-25T16:56:04.631Z,21.90
2019-01-25T16:58:30.939Z,23.77
2019-01-25T17:00:57.258Z,24.17
2019-01-25T17:03:23.474Z,25.83
2019-01-25T17:05:49.790Z,26.53
2019-01-25T17:08:16.093Z,27.53
2019-01-25T17:10:42.313Z,32.50
2019-01-25T17:13:08.714Z,35.77
2019-01-25T17:15:35.162Z,29.63
2019-01-25T17:18:01.477Z,31.53
2019-01-25T17:20:28.404Z,30.87
2019-01-25T17:22:55.241Z,30.27
2019-01-25T17:25:21.662Z,30.63
2019-01-25T17:27:50.979Z,30.07
2019-01-25T17:30:21.297Z,28.27
2019-01-25T17:32:48.087Z,26.27
2019-01-25T17:35:14.410Z,32.27
2019-01-25T17:37:40.618Z,31.77
2019-01-25T17:40:19.727Z,29.50
2019-01-25T17:42:45.926Z,187.10
2019-01-25T17:45:12.645Z,38.50
2019-01-25T17:47:38.970Z,35.83
2019-01-25T17:50:10.175Z,32.63
2019-01-25T17:52:37.734Z,35.97
2019-01-25T17:55:06.974Z,32.00
2019-01-25T17:57:33.179Z,31.03
2019-01-25T17:59:59.425Z,31.57
2019-01-25T18:02:26.162Z,30.60
2019-01-25T18:04:52.478Z,28.90
2019-01-25T18:07:19.344Z,30.13
2019-01-25T18:09:45.795Z,26.77
2019-01-25T18:12:12.010Z,26.23
2019-01-25T18:14:38.307Z,28.37
2019-01-25T18:17:04.609Z,26.67
2019-01-25T18:19:30.881Z,26.33
2019-01-25T18:21:57.106Z,28.67
2019-01-25T18:24:23.311Z,364.27
2019-01-25T18:26:49.553Z,53.50
2019-01-25T18:29:16.006Z,27.67
2019-01-25T18:31:42.226Z,22.90
2019-01-25T18:34:08.638Z,23.00
2019-01-25T18:36:54.824Z,23.07
2019-01-25T18:39:21.030Z,23.70
2019-01-25T18:41:47.253Z,25.67
2019-01-25T18:44:13.457Z,26.50
2019-01-25T18:46:39.803Z,24.83
2019-01-25T18:49:06.115Z,23.70
2019-01-25T18:51:32.306Z,25.33
2019-01-25T18:53:58.552Z,24.90
2019-01-25T18:56:24.845Z,19.70
2019-01-25T18:58:51.274Z,17.40
2019-01-25T19:01:17.487Z,17.53
2019-01-25T19:03:43.694Z,13.17
2019-01-25T19:06:10.007Z,14.03
2019-01-25T19:08:36.410Z,12.97
2019-01-25T19:11:02.818Z,10.07
2019-01-25T19:13:29.040Z,8.70
2019-01-25T19:15:55.586Z,9.93
2019-01-25T19:18:21.814Z,11.90
2019-01-25T19:20:48.019Z,10.83
2019-01-25T19:23:14.415Z,10.47
2019-01-25T19:25:40.614Z,8.50
2019-01-25T19:28:06.952Z,34.27
2019-01-25T19:30:42.375Z,311.43
2019-01-25T19:33:08.959Z,10.73
2019-01-25T19:35:35.466Z,7.97
2019-01-25T19:38:01.696Z,9.20
2019-01-25T19:40:30.494Z,8.20
2019-01-25T19:42:57.222Z,7.00
2019-01-25T19:45:23.746Z,8.80
2019-01-25T19:47:50.255Z,8.77
2019-01-25T19:50:18.680Z,8.07
2019-01-25T19:52:44.987Z,8.20
2019-01-25T19:55:14.210Z,8.40
2019-01-25T19:57:40.410Z,7.97
2019-01-25T20:00:13.342Z,8.53
2019-01-25T20:02:39.645Z,8.17
2019-01-25T20:05:12.470Z,8.97
2019-01-25T20:07:38.785Z,8.00
2019-01-25T20:10:08.814Z,9.70
2019-01-25T20:12:35.024Z,8.07
2019-01-25T20:15:01.250Z,13.23
2019-01-25T20:17:27.759Z,9.23
2019-01-25T20:19:54.013Z,9.23
2019-01-25T20:22:20.214Z,8.60
2019-01-25T20:24:46.433Z,7.80
2019-01-25T20:27:12.665Z,9.97
2019-01-25T20:29:38.889Z,8.03
2019-01-25T20:32:05.246Z,6.53
2019-01-25T20:34:31.692Z,7.50
2019-01-25T20:36:57.990Z,6.33
2019-01-25T20:39:24.269Z,7.27
2019-01-25T20:41:50.492Z,8.20
2019-01-25T20:44:16.786Z,7.73
2019-01-25T20:46:43.174Z,8.27
2019-01-25T20:49:09.499Z,198.83
2019-01-25T20:51:35.823Z,16.67
2019-01-25T20:54:02.126Z,5.73
2019-01-25T20:56:28.459Z,5.50
2019-01-25T20:58:54.663Z,6.43
2019-01-25T21:01:20.899Z,7.97
2019-01-25T21:03:47.090Z,5.53
2019-01-25T21:06:13.319Z,6.10
2019-01-25T21:08:39.537Z,5.63
2019-01-25T21:11:05.845Z,6.40
2019-01-25T21:13:32.502Z,6.80
2019-01-25T21:15:58.955Z,5.73
2019-01-25T21:18:25.359Z,6.60
2019-01-25T21:20:51.557Z,7.03
2019-01-25T21:23:18.085Z,7.90
2019-01-25T21:25:44.284Z,8.43
2019-01-25T21:28:10.901Z,9.03
2019-01-25T21:30:37.310Z,17.33
2019-01-25T21:33:04.346Z,19.03
2019-01-25T21:35:30.737Z,11.97
2019-01-25T21:37:57.067Z,10.80
2019-01-25T21:40:25.474Z,9.53
2019-01-25T21:42:51.810Z,8.80
2019-01-25T21:45:20.233Z,6.97
2019-01-25T21:47:46.558Z,8.43
2019-01-25T21:50:15.759Z,8.80
2019-01-25T21:52:41.989Z,7.27
2019-01-25T21:55:11.002Z,10.20
2019-01-25T21:57:37.592Z,6.77
2019-01-25T22:00:10.674Z,6.00
2019-01-25T22:02:37.005Z,5.00
2019-01-25T22:05:05.618Z,4.30
2019-01-25T22:07:31.818Z,3.60
2019-01-25T22:09:58.042Z,3.77
2019-01-25T22:12:24.346Z,3.73
2019-01-25T22:14:50.561Z,3.60
2019-01-25T22:17:16.927Z,3.53
2019-01-25T22:19:43.150Z,3.30
2019-01-25T22:22:09.449Z,3.00
2019-01-25T22:24:35.926Z,2.73
2019-01-25T22:27:02.126Z,2.93
2019-01-25T22:29:28.401Z,2.87
2019-01-25T22:31:54.598Z,3.37
2019-01-25T22:34:20.930Z,3.43
2019-01-25T22:36:47.130Z,3.20
2019-01-25T22:39:13.642Z,3.00
2019-01-25T22:41:39.856Z,3.97
2019-01-25T22:44:06.093Z,3.73
2019-01-25T22:46:32.423Z,4.30
2019-01-25T22:48:58.643Z,4.03
2019-01-25T22:51:24.848Z,4.00
2019-01-25T22:53:51.083Z,3.73
2019-01-25T22:56:17.277Z,3.80
2019-01-25T22:58:43.481Z,5.87
2019-01-25T23:01:16.549Z,3.80
2019-01-25T23:03:55.181Z,4.53
2019-01-25T23:06:39.814Z,4.00
2019-01-25T23:09:22.002Z,4.00
2019-01-25T23:11:48.206Z,4.13
2019-01-25T23:14:14.535Z,4.13
2019-01-25T23:16:40.857Z,4.87
2019-01-25T23:19:07.074Z,4.83
2019-01-25T23:21:33.378Z,4.33
2019-01-25T23:23:59.577Z,5.07
2019-01-25T23:26:25.901Z,4.67
2019-01-25T23:28:52.106Z,4.50
2019-01-25T23:31:18.438Z,5.07
2019-01-25T23:33:44.646Z,6.83
2019-01-25T23:36:10.870Z,6.17
2019-01-25T23:38:37.069Z,7.47
2019-01-25T23:41:03.502Z,5.53
2019-01-25T23:43:29.717Z,7.70
2019-01-25T23:45:55.938Z,8.43
2019-01-25T23:48:22.141Z,5.80
2019-01-25T23:50:48.362Z,4.80
2019-01-25T23:53:14.574Z,5.03
2019-01-25T23:55:40.991Z,5.10
2019-01-25T23:58:07.195Z,5.17
